sensor_id;sensor_type;location;lat;lon;timestamp;pressure;altitude;pressure_sealevel;temperature;humidity
62544;BME280;48597;49.030;1.822;2024-02-28T00:00:44;101360.63;;;19.49;42.38
62544;BME280;48597;49.030;1.822;2024-02-28T00:03:10;101356.53;;;19.50;42.37
62544;BME280;48597;49.030;1.822;2024-02-28T00:05:35;101360.63;;;19.49;42.43
62544;BME280;48597;49.030;1.822;2024-02-28T00:08:01;101365.53;;;19.49;42.31
62544;BME280;48597;49.030;1.822;2024-02-28T00:10:26;101364.69;;;19.48;42.42
62544;BME280;48597;49.030;1.822;2024-02-28T00:12:51;101360.25;;;19.47;42.46
62544;BME280;48597;49.030;1.822;2024-02-28T00:15:17;101373.28;;;19.48;42.32
62544;BME280;48597;49.030;1.822;2024-02-28T00:17:43;101369.59;;;19.48;42.28
62544;BME280;48597;49.030;1.822;2024-02-28T00:20:09;101368.81;;;19.47;42.31
62544;BME280;48597;49.030;1.822;2024-02-28T00:22:38;101377.41;;;19.47;42.27
62544;BME280;48597;49.030;1.822;2024-02-28T00:25:03;101373.72;;;19.47;42.13
62544;BME280;48597;49.030;1.822;2024-02-28T00:27:32;101379.88;;;19.45;42.36
62544;BME280;48597;49.030;1.822;2024-02-28T00:29:57;101376.59;;;19.47;42.20
62544;BME280;48597;49.030;1.822;2024-02-28T00:32:22;101379.44;;;19.47;42.12
62544;BME280;48597;49.030;1.822;2024-02-28T00:34:47;101374.97;;;19.46;42.07
62544;BME280;48597;49.030;1.822;2024-02-28T00:37:13;101372.91;;;19.46;42.24
62544;BME280;48597;49.030;1.822;2024-02-28T00:39:38;101374.16;;;19.45;42.13
62544;BME280;48597;49.030;1.822;2024-02-28T00:42:04;101372.53;;;19.44;42.17
62544;BME280;48597;49.030;1.822;2024-02-28T00:44:29;101367.63;;;19.45;42.06
62544;BME280;48597;49.030;1.822;2024-02-28T00:46:55;101372.53;;;19.44;42.07
62544;BME280;48597;49.030;1.822;2024-02-28T00:49:20;101363.97;;;19.44;42.14
62544;BME280;48597;49.030;1.822;2024-02-28T00:51:46;101362.72;;;19.45;42.07
62544;BME280;48597;49.030;1.822;2024-02-28T00:54:11;101358.25;;;19.44;42.08
62544;BME280;48597;49.030;1.822;2024-02-28T00:56:37;101359.50;;;19.43;42.07
62544;BME280;48597;49.030;1.822;2024-02-28T00:59:02;101363.97;;;19.44;41.97
62544;BME280;48597;49.030;1.822;2024-02-28T01:01:28;101356.63;;;19.43;41.96
62544;BME280;48597;49.030;1.822;2024-02-28T01:03:53;101370.94;;;19.43;41.99
62544;BME280;48597;49.030;1.822;2024-02-28T01:06:18;101369.31;;;19.42;42.07
62544;BME280;48597;49.030;1.822;2024-02-28T01:08:44;101366.44;;;19.42;41.92
62544;BME280;48597;49.030;1.822;2024-02-28T01:11:10;101356.25;;;19.41;41.91
62544;BME280;48597;49.030;1.822;2024-02-28T01:13:35;101348.50;;;19.42;41.94
62544;BME280;48597;49.030;1.822;2024-02-28T01:16:01;101355.44;;;19.41;41.79
62544;BME280;48597;49.030;1.822;2024-02-28T01:18:26;101350.97;;;19.40;41.90
62544;BME280;48597;49.030;1.822;2024-02-28T01:20:55;101346.88;;;19.41;41.84
62544;BME280;48597;49.030;1.822;2024-02-28T01:23:21;101353.41;;;19.41;41.91
62544;BME280;48597;49.030;1.822;2024-02-28T01:25:46;101353.84;;;19.40;41.86
62544;BME280;48597;49.030;1.822;2024-02-28T01:28:12;101353.84;;;19.40;41.85
62544;BME280;48597;49.030;1.822;2024-02-28T01:30:38;101355.06;;;19.39;41.84
62544;BME280;48597;49.030;1.822;2024-02-28T01:33:03;101353.44;;;19.38;41.87
62544;BME280;48597;49.030;1.822;2024-02-28T01:35:29;101351.84;;;19.37;41.83
62544;BME280;48597;49.030;1.822;2024-02-28T01:37:54;101353.88;;;19.36;41.88
62544;BME280;48597;49.030;1.822;2024-02-28T01:40:20;101352.28;;;19.35;41.85
62544;BME280;48597;49.030;1.822;2024-02-28T01:42:46;101355.13;;;19.35;41.87
62544;BME280;48597;49.030;1.822;2024-02-28T01:45:13;101350.69;;;19.34;41.85
62544;BME280;48597;49.030;1.822;2024-02-28T01:47:39;101350.69;;;19.34;41.83
62544;BME280;48597;49.030;1.822;2024-02-28T01:50:05;101349.88;;;19.34;41.82
62544;BME280;48597;49.030;1.822;2024-02-28T01:52:31;101353.53;;;19.34;41.76
62544;BME280;48597;49.030;1.822;2024-02-28T01:54:56;101355.13;;;19.35;41.80
62544;BME280;48597;49.030;1.822;2024-02-28T01:57:22;101358.78;;;19.36;41.70
62544;BME280;48597;49.030;1.822;2024-02-28T01:59:48;101346.56;;;19.35;41.68
62544;BME280;48597;49.030;1.822;2024-02-28T02:02:13;101348.16;;;19.36;41.47
62544;BME280;48597;49.030;1.822;2024-02-28T02:04:38;101339.16;;;19.38;41.59
62544;BME280;48597;49.030;1.822;2024-02-28T02:07:04;101353.03;;;19.39;41.60
62544;BME280;48597;49.030;1.822;2024-02-28T02:09:31;101348.50;;;19.42;41.48
62544;BME280;48597;49.030;1.822;2024-02-28T02:11:57;101341.09;;;19.44;41.54
62544;BME280;48597;49.030;1.822;2024-02-28T02:14:22;101342.34;;;19.43;41.53
62544;BME280;48597;49.030;1.822;2024-02-28T02:16:47;101331.34;;;19.42;41.49
62544;BME280;48597;49.030;1.822;2024-02-28T02:19:13;101334.19;;;19.42;41.43
62544;BME280;48597;49.030;1.822;2024-02-28T02:21:43;101334.63;;;19.40;41.54
62544;BME280;48597;49.030;1.822;2024-02-28T02:24:09;101347.31;;;19.39;41.49
62544;BME280;48597;49.030;1.822;2024-02-28T02:26:34;101335.06;;;19.39;41.48
62544;BME280;48597;49.030;1.822;2024-02-28T02:28:59;101341.22;;;19.37;41.55
62544;BME280;48597;49.030;1.822;2024-02-28T02:31:25;101348.97;;;19.37;41.40
62544;BME280;48597;49.030;1.822;2024-02-28T02:33:50;101351.03;;;19.36;41.50
62544;BME280;48597;49.030;1.822;2024-02-28T02:36:16;101354.31;;;19.35;41.52
62544;BME280;48597;49.030;1.822;2024-02-28T02:38:41;101357.97;;;19.35;41.38
62544;BME280;48597;49.030;1.822;2024-02-28T02:41:07;101362.13;;;19.34;41.52
62544;BME280;48597;49.030;1.822;2024-02-28T02:43:32;101368.63;;;19.35;41.47
62544;BME280;48597;49.030;1.822;2024-02-28T02:45:57;101367.38;;;19.36;41.37
62544;BME280;48597;49.030;1.822;2024-02-28T02:48:23;101369.41;;;19.35;41.38
62544;BME280;48597;49.030;1.822;2024-02-28T02:50:48;101365.31;;;19.36;41.41
62544;BME280;48597;49.030;1.822;2024-02-28T02:53:14;101370.59;;;19.38;41.39
62544;BME280;48597;49.030;1.822;2024-02-28T02:55:39;101369.38;;;19.39;41.33
62544;BME280;48597;49.030;1.822;2024-02-28T02:58:04;101373.03;;;19.39;41.31
62544;BME280;48597;49.030;1.822;2024-02-28T03:00:30;101377.50;;;19.40;41.39
62544;BME280;48597;49.030;1.822;2024-02-28T03:02:55;101378.31;;;19.41;41.33
62544;BME280;48597;49.030;1.822;2024-02-28T03:05:21;101378.69;;;19.43;41.15
62544;BME280;48597;49.030;1.822;2024-02-28T03:07:46;101383.22;;;19.40;41.14
62544;BME280;48597;49.030;1.822;2024-02-28T03:10:12;101380.75;;;19.42;41.31
62544;BME280;48597;49.030;1.822;2024-02-28T03:12:37;101379.88;;;19.45;41.12
62544;BME280;48597;49.030;1.822;2024-02-28T03:15:03;101373.34;;;19.45;41.05
62544;BME280;48597;49.030;1.822;2024-02-28T03:17:29;101381.13;;;19.44;41.20
62544;BME280;48597;49.030;1.822;2024-02-28T03:19:54;101387.22;;;19.46;41.10
62544;BME280;48597;49.030;1.822;2024-02-28T03:22:20;101377.41;;;19.47;41.16
62544;BME280;48597;49.030;1.822;2024-02-28T03:24:45;101368.00;;;19.47;41.03
62544;BME280;48597;49.030;1.822;2024-02-28T03:27:11;101367.19;;;19.46;41.09
62544;BME280;48597;49.030;1.822;2024-02-28T03:29:36;101367.19;;;19.46;41.12
62544;BME280;48597;49.030;1.822;2024-02-28T03:32:02;101361.03;;;19.48;41.08
62544;BME280;48597;49.030;1.822;2024-02-28T03:34:29;101363.88;;;19.48;40.99
62544;BME280;48597;49.030;1.822;2024-02-28T03:36:54;101368.81;;;19.47;41.02
62544;BME280;48597;49.030;1.822;2024-02-28T03:39:19;101365.16;;;19.47;41.05
62544;BME280;48597;49.030;1.822;2024-02-28T03:41:45;101359.88;;;19.45;40.96
62544;BME280;48597;49.030;1.822;2024-02-28T03:44:10;101359.50;;;19.43;41.33
62544;BME280;48597;49.030;1.822;2024-02-28T03:46:36;101358.69;;;19.43;41.06
62544;BME280;48597;49.030;1.822;2024-02-28T03:49:01;101361.16;;;19.41;41.03
62544;BME280;48597;49.030;1.822;2024-02-28T03:51:28;101360.34;;;19.40;41.08
62544;BME280;48597;49.030;1.822;2024-02-28T03:53:54;101357.94;;;19.39;41.03
62544;BME280;48597;49.030;1.822;2024-02-28T03:56:23;101362.41;;;19.40;40.91
62544;BME280;48597;49.030;1.822;2024-02-28T03:58:50;101359.97;;;19.38;41.01
62544;BME280;48597;49.030;1.822;2024-02-28T04:01:16;101355.50;;;19.37;41.09
62544;BME280;48597;49.030;1.822;2024-02-28T04:03:41;101364.09;;;19.37;41.02
62544;BME280;48597;49.030;1.822;2024-02-28T04:06:06;101369.78;;;19.37;41.02
62544;BME280;48597;49.030;1.822;2024-02-28T04:08:32;101371.84;;;19.37;41.02
62544;BME280;48597;49.030;1.822;2024-02-28T04:10:57;101376.75;;;19.36;40.83
62544;BME280;48597;49.030;1.822;2024-02-28T04:13:22;101368.19;;;19.36;40.98
62544;BME280;48597;49.030;1.822;2024-02-28T04:15:48;101376.75;;;19.36;40.95
62544;BME280;48597;49.030;1.822;2024-02-28T04:18:13;101373.09;;;19.36;40.99
62544;BME280;48597;49.030;1.822;2024-02-28T04:20:38;101381.66;;;19.36;40.94
62544;BME280;48597;49.030;1.822;2024-02-28T04:23:04;101378.00;;;19.35;40.93
62544;BME280;48597;49.030;1.822;2024-02-28T04:25:29;101375.50;;;19.37;41.17
62544;BME280;48597;49.030;1.822;2024-02-28T04:27:55;101372.66;;;19.37;40.77
62544;BME280;48597;49.030;1.822;2024-02-28T04:30:22;101371.03;;;19.36;40.65
62544;BME280;48597;49.030;1.822;2024-02-28T04:32:47;101382.03;;;19.38;40.89
62544;BME280;48597;49.030;1.822;2024-02-28T04:35:12;101378.38;;;19.37;40.85
62544;BME280;48597;49.030;1.822;2024-02-28T04:37:40;101380.00;;;19.38;40.82
62544;BME280;48597;49.030;1.822;2024-02-28T04:40:06;101376.69;;;19.40;40.72
62544;BME280;48597;49.030;1.822;2024-02-28T04:42:32;101383.22;;;19.40;40.76
62544;BME280;48597;49.030;1.822;2024-02-28T04:44:57;101397.53;;;19.40;40.81
62544;BME280;48597;49.030;1.822;2024-02-28T04:47:22;101403.25;;;19.40;40.81
62544;BME280;48597;49.030;1.822;2024-02-28T04:49:48;101397.53;;;19.40;40.81
62544;BME280;48597;49.030;1.822;2024-02-28T04:52:13;101407.34;;;19.39;40.87
62544;BME280;48597;49.030;1.822;2024-02-28T04:54:40;101404.47;;;19.39;40.81
62544;BME280;48597;49.030;1.822;2024-02-28T04:57:05;101405.28;;;19.40;40.87
62544;BME280;48597;49.030;1.822;2024-02-28T04:59:31;101405.28;;;19.40;40.99
62544;BME280;48597;49.030;1.822;2024-02-28T05:01:57;101400.00;;;19.38;40.84
62544;BME280;48597;49.030;1.822;2024-02-28T05:04:22;101392.66;;;19.37;40.89
62544;BME280;48597;49.030;1.822;2024-02-28T05:06:48;101393.91;;;19.36;40.74
62544;BME280;48597;49.030;1.822;2024-02-28T05:09:15;101395.53;;;19.37;40.77
62544;BME280;48597;49.030;1.822;2024-02-28T05:11:40;101393.09;;;19.36;40.81
62544;BME280;48597;49.030;1.822;2024-02-28T05:14:06;101401.69;;;19.36;40.75
62544;BME280;48597;49.030;1.822;2024-02-28T05:16:31;101401.69;;;19.36;40.79
62544;BME280;48597;49.030;1.822;2024-02-28T05:18:57;101396.41;;;19.34;40.72
62544;BME280;48597;49.030;1.822;2024-02-28T05:21:22;101388.63;;;19.35;40.82
62544;BME280;48597;49.030;1.822;2024-02-28T05:23:48;101397.19;;;19.35;40.77
62544;BME280;48597;49.030;1.822;2024-02-28T05:26:13;101409.09;;;19.33;40.71
62544;BME280;48597;49.030;1.822;2024-02-28T05:28:39;101418.47;;;19.34;40.61
62544;BME280;48597;49.030;1.822;2024-02-28T05:31:21;101417.66;;;19.33;40.77
62544;BME280;48597;49.030;1.822;2024-02-28T05:33:46;101402.13;;;19.34;40.70
62544;BME280;48597;49.030;1.822;2024-02-28T05:36:12;101406.22;;;19.33;40.67
62544;BME280;48597;49.030;1.822;2024-02-28T05:38:37;101406.22;;;19.33;40.64
62544;BME280;48597;49.030;1.822;2024-02-28T05:41:03;101409.91;;;19.34;40.64
62544;BME280;48597;49.030;1.822;2024-02-28T05:43:28;101414.00;;;19.33;40.64
62544;BME280;48597;49.030;1.822;2024-02-28T05:45:53;101409.09;;;19.33;40.74
62544;BME280;48597;49.030;1.822;2024-02-28T05:48:19;101404.19;;;19.34;40.64
62544;BME280;48597;49.030;1.822;2024-02-28T05:50:45;101402.91;;;19.35;40.72
62544;BME280;48597;49.030;1.822;2024-02-28T05:53:11;101410.34;;;19.32;40.62
62544;BME280;48597;49.030;1.822;2024-02-28T05:55:36;101411.94;;;19.33;40.64
62544;BME280;48597;49.030;1.822;2024-02-28T05:58:02;101412.38;;;19.32;40.64
62544;BME280;48597;49.030;1.822;2024-02-28T06:00:27;101407.47;;;19.32;40.67
62544;BME280;48597;49.030;1.822;2024-02-28T06:02:53;101410.34;;;19.32;40.62
62544;BME280;48597;49.030;1.822;2024-02-28T06:05:19;101409.53;;;19.32;40.55
62544;BME280;48597;49.030;1.822;2024-02-28T06:07:45;101412.38;;;19.32;40.64
62544;BME280;48597;49.030;1.822;2024-02-28T06:10:10;101416.06;;;19.32;40.62
62544;BME280;48597;49.030;1.822;2024-02-28T06:12:36;101421.75;;;19.32;40.62
62544;BME280;48597;49.030;1.822;2024-02-28T06:15:01;101416.06;;;19.32;40.60
62544;BME280;48597;49.030;1.822;2024-02-28T06:17:26;101425.88;;;19.31;40.56
62544;BME280;48597;49.030;1.822;2024-02-28T06:19:52;101423.00;;;19.31;40.56
62544;BME280;48597;49.030;1.822;2024-02-28T06:22:17;101434.44;;;19.31;40.62
62544;BME280;48597;49.030;1.822;2024-02-28T06:24:45;101440.16;;;19.31;40.60
62544;BME280;48597;49.030;1.822;2024-02-28T06:27:10;101435.63;;;19.34;40.51
62544;BME280;48597;49.030;1.822;2024-02-28T06:29:38;101436.06;;;19.32;40.61
62544;BME280;48597;49.030;1.822;2024-02-28T06:32:03;101437.28;;;19.31;40.63
62544;BME280;48597;49.030;1.822;2024-02-28T06:34:29;101440.59;;;19.30;40.60
62544;BME280;48597;49.030;1.822;2024-02-28T06:36:54;101435.69;;;19.30;40.60
62544;BME280;48597;49.030;1.822;2024-02-28T06:39:20;101446.31;;;19.30;40.53
62544;BME280;48597;49.030;1.822;2024-02-28T06:41:45;101448.34;;;19.29;40.57
62544;BME280;48597;49.030;1.822;2024-02-28T06:44:10;101437.72;;;19.30;40.58
62544;BME280;48597;49.030;1.822;2024-02-28T06:46:36;101444.25;;;19.30;40.51
62544;BME280;48597;49.030;1.822;2024-02-28T06:49:02;101445.50;;;19.29;40.53
62544;BME280;48597;49.030;1.822;2024-02-28T06:51:28;101445.50;;;19.29;40.53
62544;BME280;48597;49.030;1.822;2024-02-28T06:53:53;101449.16;;;19.30;40.48
62544;BME280;48597;49.030;1.822;2024-02-28T06:56:18;101456.50;;;19.31;40.51
62544;BME280;48597;49.030;1.822;2024-02-28T06:58:44;101447.09;;;19.30;40.42
62544;BME280;48597;49.030;1.822;2024-02-28T07:01:09;101449.97;;;19.30;40.59
62544;BME280;48597;49.030;1.822;2024-02-28T07:03:34;101456.50;;;19.31;40.43
62544;BME280;48597;49.030;1.822;2024-02-28T07:06:00;101460.97;;;19.32;40.56
62544;BME280;48597;49.030;1.822;2024-02-28T07:08:25;101466.69;;;19.32;40.33
62544;BME280;48597;49.030;1.822;2024-02-28T07:10:51;101459.34;;;19.31;40.44
62544;BME280;48597;49.030;1.822;2024-02-28T07:13:20;101464.25;;;19.30;40.35
62544;BME280;48597;49.030;1.822;2024-02-28T07:15:47;101467.94;;;19.31;40.43
62544;BME280;48597;49.030;1.822;2024-02-28T07:18:12;101467.94;;;19.31;40.51
62544;BME280;48597;49.030;1.822;2024-02-28T07:20:37;101469.97;;;19.30;40.57
62544;BME280;48597;49.030;1.822;2024-02-28T07:23:03;101465.50;;;19.29;40.45
62544;BME280;48597;49.030;1.822;2024-02-28T07:25:28;101476.13;;;19.28;40.52
62544;BME280;48597;49.030;1.822;2024-02-28T07:27:57;101478.97;;;19.28;40.44
62544;BME280;48597;49.030;1.822;2024-02-28T07:30:22;101481.47;;;19.26;40.56
62544;BME280;48597;49.030;1.822;2024-02-28T07:32:47;101480.22;;;19.27;40.35
62544;BME280;48597;49.030;1.822;2024-02-28T07:35:14;101472.47;;;19.28;40.50
62544;BME280;48597;49.030;1.822;2024-02-28T07:37:39;101466.75;;;19.28;40.49
62544;BME280;48597;49.030;1.822;2024-02-28T07:40:05;101471.66;;;19.27;40.44
62544;BME280;48597;49.030;1.822;2024-02-28T07:42:32;101477.38;;;19.27;40.53
62544;BME280;48597;49.030;1.822;2024-02-28T07:44:58;101472.47;;;19.28;40.41
62544;BME280;48597;49.030;1.822;2024-02-28T07:47:23;101483.88;;;19.28;40.46
62544;BME280;48597;49.030;1.822;2024-02-28T07:49:50;101479.78;;;19.29;40.41
62544;BME280;48597;49.030;1.822;2024-02-28T07:52:15;101483.88;;;19.28;40.52
62544;BME280;48597;49.030;1.822;2024-02-28T07:54:41;101481.84;;;19.28;40.45
62544;BME280;48597;49.030;1.822;2024-02-28T07:57:08;101475.31;;;19.28;40.32
62544;BME280;48597;49.030;1.822;2024-02-28T07:59:39;101489.59;;;19.28;40.45
62544;BME280;48597;49.030;1.822;2024-02-28T08:02:05;101484.28;;;19.30;40.39
62544;BME280;48597;49.030;1.822;2024-02-28T08:04:31;101490.38;;;19.32;40.30
62544;BME280;48597;49.030;1.822;2024-02-28T08:06:57;101492.41;;;19.32;40.41
62544;BME280;48597;49.030;1.822;2024-02-28T08:09:22;101489.13;;;19.33;40.32
62544;BME280;48597;49.030;1.822;2024-02-28T08:11:48;101478.03;;;19.35;40.22
62544;BME280;48597;49.030;1.822;2024-02-28T08:14:13;101480.91;;;19.35;40.24
62544;BME280;48597;49.030;1.822;2024-02-28T08:16:39;101481.72;;;19.36;40.29
62544;BME280;48597;49.030;1.822;2024-02-28T08:19:04;101477.19;;;19.38;40.25
62544;BME280;48597;49.030;1.822;2024-02-28T08:21:29;101487.38;;;19.39;40.67
62544;BME280;48597;49.030;1.822;2024-02-28T08:23:55;101487.81;;;19.38;40.71
62544;BME280;48597;49.030;1.822;2024-02-28T08:26:20;101478.84;;;19.36;40.67
62544;BME280;48597;49.030;1.822;2024-02-28T08:28:46;101488.66;;;19.35;40.69
62544;BME280;48597;49.030;1.822;2024-02-28T08:31:11;101492.34;;;19.35;40.71
62544;BME280;48597;49.030;1.822;2024-02-28T08:33:37;101493.59;;;19.34;40.72
62544;BME280;48597;49.030;1.822;2024-02-28T08:36:02;101477.25;;;19.35;40.87
62544;BME280;48597;49.030;1.822;2024-02-28T08:38:28;101485.03;;;19.34;40.86
62544;BME280;48597;49.030;1.822;2024-02-28T08:40:53;101488.66;;;19.35;40.96
62544;BME280;48597;49.030;1.822;2024-02-28T08:43:19;101482.94;;;19.35;41.01
62544;BME280;48597;49.030;1.822;2024-02-28T08:45:44;101482.19;;;19.34;41.18
62544;BME280;48597;49.030;1.822;2024-02-28T08:48:10;101478.50;;;19.34;41.10
62544;BME280;48597;49.030;1.822;2024-02-28T08:50:35;101479.31;;;19.34;41.18
62544;BME280;48597;49.030;1.822;2024-02-28T08:53:01;101483.75;;;19.35;41.32
62544;BME280;48597;49.030;1.822;2024-02-28T08:55:28;101488.25;;;19.36;41.28
62544;BME280;48597;49.030;1.822;2024-02-28T08:57:54;101486.63;;;19.35;41.22
62544;BME280;48597;49.030;1.822;2024-02-28T09:00:19;101488.25;;;19.36;41.25
62544;BME280;48597;49.030;1.822;2024-02-28T09:02:45;101489.47;;;19.35;41.29
62544;BME280;48597;49.030;1.822;2024-02-28T09:05:10;101492.34;;;19.35;41.17
62544;BME280;48597;49.030;1.822;2024-02-28T09:07:36;101490.28;;;19.36;41.37
62544;BME280;48597;49.030;1.822;2024-02-28T09:10:05;101490.66;;;19.38;41.41
62544;BME280;48597;49.030;1.822;2024-02-28T09:12:31;101499.25;;;19.38;41.35
62544;BME280;48597;49.030;1.822;2024-02-28T09:14:57;101499.69;;;19.36;41.30
62544;BME280;48597;49.030;1.822;2024-02-28T09:17:23;101509.06;;;19.37;41.36
62544;BME280;48597;49.030;1.822;2024-02-28T09:19:49;101508.25;;;19.36;41.33
62544;BME280;48597;49.030;1.822;2024-02-28T09:22:15;101519.69;;;19.36;41.45
62544;BME280;48597;49.030;1.822;2024-02-28T09:24:42;101513.16;;;19.36;41.47
62544;BME280;48597;49.030;1.822;2024-02-28T09:27:07;101518.88;;;19.36;41.39
62544;BME280;48597;49.030;1.822;2024-02-28T09:29:33;101506.63;;;19.35;41.39
62544;BME280;48597;49.030;1.822;2024-02-28T09:31:58;101518.06;;;19.35;41.42
62544;BME280;48597;49.030;1.822;2024-02-28T09:34:24;101515.22;;;19.35;41.33
62544;BME280;48597;49.030;1.822;2024-02-28T09:36:49;101511.53;;;19.35;41.37
62544;BME280;48597;49.030;1.822;2024-02-28T09:39:15;101509.13;;;19.33;41.52
62544;BME280;48597;49.030;1.822;2024-02-28T09:41:41;101505.47;;;19.33;41.43
62544;BME280;48597;49.030;1.822;2024-02-28T09:44:07;101506.28;;;19.33;41.55
62544;BME280;48597;49.030;1.822;2024-02-28T09:46:36;101517.25;;;19.35;41.58
62544;BME280;48597;49.030;1.822;2024-02-28T09:49:04;101512.34;;;19.35;41.49
62544;BME280;48597;49.030;1.822;2024-02-28T09:51:34;101503.78;;;19.35;41.52
62544;BME280;48597;49.030;1.822;2024-02-28T09:54:01;101502.97;;;19.35;41.58
62544;BME280;48597;49.030;1.822;2024-02-28T09:56:27;101507.91;;;19.34;41.63
62544;BME280;48597;49.030;1.822;2024-02-28T09:58:54;101507.91;;;19.34;41.62
62544;BME280;48597;49.030;1.822;2024-02-28T10:01:21;101512.00;;;19.33;41.65
62544;BME280;48597;49.030;1.822;2024-02-28T10:03:48;101507.09;;;19.34;41.72
62544;BME280;48597;49.030;1.822;2024-02-28T10:06:16;101512.00;;;19.33;41.58
62544;BME280;48597;49.030;1.822;2024-02-28T10:08:42;101509.13;;;19.33;41.69
62544;BME280;48597;49.030;1.822;2024-02-28T10:11:07;101514.41;;;19.35;41.75
62544;BME280;48597;49.030;1.822;2024-02-28T10:13:33;101510.75;;;19.34;41.78
62544;BME280;48597;49.030;1.822;2024-02-28T10:15:58;101513.63;;;19.34;41.59
62544;BME280;48597;49.030;1.822;2024-02-28T10:18:25;101511.53;;;19.35;41.54
62544;BME280;48597;49.030;1.822;2024-02-28T10:20:51;101512.81;;;19.34;41.62
62544;BME280;48597;49.030;1.822;2024-02-28T10:23:16;101501.38;;;19.34;41.69
62544;BME280;48597;49.030;1.822;2024-02-28T10:25:45;101507.91;;;19.34;41.62
62544;BME280;48597;49.030;1.822;2024-02-28T10:28:11;101514.84;;;19.33;41.75
62544;BME280;48597;49.030;1.822;2024-02-28T10:30:40;101514.84;;;19.33;41.88
62544;BME280;48597;49.030;1.822;2024-02-28T10:33:12;101512.81;;;19.34;42.00
62544;BME280;48597;49.030;1.822;2024-02-28T10:35:41;101512.34;;;19.35;42.15
62544;BME280;48597;49.030;1.822;2024-02-28T10:38:13;101515.59;;;19.37;42.28
62544;BME280;48597;49.030;1.822;2024-02-28T10:40:42;101519.69;;;19.36;42.08
62544;BME280;48597;49.030;1.822;2024-02-28T10:43:10;101512.34;;;19.35;42.37
62544;BME280;48597;49.030;1.822;2024-02-28T10:45:37;101516.41;;;19.38;42.30
62544;BME280;48597;49.030;1.822;2024-02-28T10:48:05;101525.78;;;19.38;42.34
62544;BME280;48597;49.030;1.822;2024-02-28T10:50:32;101535.16;;;19.39;42.35
62544;BME280;48597;49.030;1.822;2024-02-28T10:53:02;101535.16;;;19.39;42.26
62544;BME280;48597;49.030;1.822;2024-02-28T10:55:32;101530.69;;;19.38;42.18
62544;BME280;48597;49.030;1.822;2024-02-28T10:58:02;101538.41;;;19.41;42.45
62544;BME280;48597;49.030;1.822;2024-02-28T11:00:29;101538.84;;;19.39;42.35
62544;BME280;48597;49.030;1.822;2024-02-28T11:02:56;101538.41;;;19.41;42.38
62544;BME280;48597;49.030;1.822;2024-02-28T11:05:23;101528.22;;;19.40;42.24
62544;BME280;48597;49.030;1.822;2024-02-28T11:07:51;101524.16;;;19.37;42.28
62544;BME280;48597;49.030;1.822;2024-02-28T11:10:17;101526.66;;;19.35;42.24
62544;BME280;48597;49.030;1.822;2024-02-28T11:12:43;101529.06;;;19.37;42.21
62544;BME280;48597;49.030;1.822;2024-02-28T11:15:16;101529.88;;;19.37;42.28
62544;BME280;48597;49.030;1.822;2024-02-28T11:17:42;101543.38;;;19.37;42.22
62544;BME280;48597;49.030;1.822;2024-02-28T11:20:14;101520.91;;;19.35;42.24
62544;BME280;48597;49.030;1.822;2024-02-28T11:22:39;101516.81;;;19.36;42.29
62544;BME280;48597;49.030;1.822;2024-02-28T11:25:05;101518.06;;;19.35;42.42
62544;BME280;48597;49.030;1.822;2024-02-28T11:27:31;101505.38;;;19.36;42.12
62544;BME280;48597;49.030;1.822;2024-02-28T11:29:58;101509.88;;;19.37;42.27
62544;BME280;48597;49.030;1.822;2024-02-28T11:32:26;101513.97;;;19.36;42.23
62544;BME280;48597;49.030;1.822;2024-02-28T11:34:52;101516.41;;;19.38;42.03
62544;BME280;48597;49.030;1.822;2024-02-28T11:37:18;101516.41;;;19.38;42.24
62544;BME280;48597;49.030;1.822;2024-02-28T11:39:47;101522.53;;;19.36;42.14
62544;BME280;48597;49.030;1.822;2024-02-28T11:42:16;101531.94;;;19.37;42.37
62544;BME280;48597;49.030;1.822;2024-02-28T11:44:42;101537.66;;;19.37;42.19
62544;BME280;48597;49.030;1.822;2024-02-28T11:47:10;101527.84;;;19.38;42.10
62544;BME280;48597;49.030;1.822;2024-02-28T11:49:39;101524.53;;;19.39;42.25
62544;BME280;48597;49.030;1.822;2024-02-28T11:52:05;101512.72;;;19.37;42.31
62544;BME280;48597;49.030;1.822;2024-02-28T11:54:31;101505.78;;;19.38;42.27
62544;BME280;48597;49.030;1.822;2024-02-28T11:56:56;101508.19;;;19.40;42.10
62544;BME280;48597;49.030;1.822;2024-02-28T11:59:22;101506.16;;;19.40;42.21
62544;BME280;48597;49.030;1.822;2024-02-28T12:01:47;101504.09;;;19.41;42.21
62544;BME280;48597;49.030;1.822;2024-02-28T12:04:13;101495.16;;;19.39;42.18
62544;BME280;48597;49.030;1.822;2024-02-28T12:06:39;101491.88;;;19.40;42.21
62544;BME280;48597;49.030;1.822;2024-02-28T12:09:06;101489.00;;;19.40;42.18
62544;BME280;48597;49.030;1.822;2024-02-28T12:11:34;101482.47;;;19.40;42.19
62544;BME280;48597;49.030;1.822;2024-02-28T12:14:03;101486.94;;;19.41;42.23
62544;BME280;48597;49.030;1.822;2024-02-28T12:16:29;101484.09;;;19.41;42.24
62544;BME280;48597;49.030;1.822;2024-02-28T12:18:55;101486.13;;;19.40;42.38
62544;BME280;48597;49.030;1.822;2024-02-28T12:21:20;101480.44;;;19.40;42.29
62544;BME280;48597;49.030;1.822;2024-02-28T12:23:46;101482.47;;;19.40;42.33
62544;BME280;48597;49.030;1.822;2024-02-28T12:26:14;101469.81;;;19.41;42.32
62544;BME280;48597;49.030;1.822;2024-02-28T12:28:39;101477.13;;;19.42;42.23
62544;BME280;48597;49.030;1.822;2024-02-28T12:31:05;101465.69;;;19.42;42.39
62544;BME280;48597;49.030;1.822;2024-02-28T12:33:34;101464.09;;;19.41;42.41
62544;BME280;48597;49.030;1.822;2024-02-28T12:35:59;101469.38;;;19.42;42.49
62544;BME280;48597;49.030;1.822;2024-02-28T12:38:28;101468.13;;;19.43;42.49
62544;BME280;48597;49.030;1.822;2024-02-28T12:40:54;101465.28;;;19.43;42.48
62544;BME280;48597;49.030;1.822;2024-02-28T12:43:19;101455.06;;;19.42;42.55